Terminal Aerodrome Forecast
Issued by NWS

Home | Current Version | Previous Version | Text Only | Print | Product List | Glossary Off
Versions: 1 2 3 4 5 6 7 8 9 10 11 12 13 14 15 16 17 18 19

000
FTUS43 KGRB 281100
TAFAUW
TAF
KAUW 281130Z 2812/2912 15006KT 4SM BR SCT008 OVC011
     FM281600 14006KT 6SM BR SCT010 OVC018
     FM282000 14009KT P6SM BKN022 BKN050 WS016/19035KT
     FM290200 13005KT 4SM BR BKN015 OVC030
      TEMPO 2903/2907 2SM -FZRASNPL BR
     FM290700 30009KT 4SM -SN BR BKN010=

USA.gov is the U.S. government's official web portal to all federal, state and local government web resources and services.